Tequesta, FL (33469)

4:17 PM EDT on September 20, 2014 (GMT -0400)
Loxahatchee River | Change Station
CLOSE
Current Station
Personal Weather Station
Location: Jupiter, FL
Elevation: 30 ft
Nearby Weather Stations

Elev 30 ft 26.94 °N, 80.10 °W | Updated 1 second ago

Rain
Rain
79.2 °F
Feels Like 84 °F
N
0.0
Wind Variable Wind from WSW
Gusts 11.0 mph

Today
High -- | Low -- °F
--% Chance of Precip.
Yesterday
High -- | Low -- °F
Precip. -- in
7:08 AM 7:19 PM
Waning Crescent, 10% visible
Pressure 29.90 in
Visibility 7.0 miles
Clouds Mostly Cloudy 2500 ft
Mostly Cloudy 5000 ft
Heat Index 84 °F
Dew Point 79 °F
Humidity 100%
Rainfall 0.16 in
Snow Depth Not available.
UV 4 out of 12
Pollen 3.00 out of 12
Ozone Good
PM2.5 Moderate
Flu Activity Not available.
METAR KSUA 201947Z 26007KT 7SM -RA BKN025 BKN050 24/23 A2990

More Conditions Fewer Conditions

Pressure 29.90 in
Visibility 7.0 miles
Clouds Mostly Cloudy 2500 ft
Mostly Cloudy 5000 ft
Heat Index 84 °F
Dew Point 79 °F
Humidity 100%
Rainfall 0.16 in
Snow Depth Not available.
UV 4 out of 12
Pollen 3.00 out of 12
Ozone Good
PM2.5 Moderate
Flu Activity Not available.
METAR KSUA 201947Z 26007KT 7SM -RA BKN025 BKN050 24/23 A2990

More Conditions Fewer Conditions

Nowcast | as of 2:15 PM EDT on September 20, 2014

Scattered showers and storms will continue to develop and increase in coverage across the area through the afternoon hours. The heavier activity is projected to setup and focus over the East Coast and Metro locations. Frequent lightning...gusty winds and heavy rainfall will be possible. Rainfall accumulations will range from a quarter to half of an inch with locally higher amounts possible over these areas.

×

10-Day Weather Forecast

Almanac

Astronomy

Sep. 20, 2014 Rise Set
Actual Time 7:08 AM EDT 7:19 PM EDT
Civil Twilight 6:44 AM EDT 7:42 PM EDT
Nautical Twilight 6:17 AM EDT 8:09 PM EDT
Astronomical Twilight 5:50 AM EDT 8:36 PM EDT
Moon 4:00 AM EDT 5:09 PM EDT
Length of Visible Light 12h 57m
Length of Day
12h 11m
Tomorrow will be 1m 35s shorter.
Waning Crescent, 10% of the Moon is Illuminated
Today
Waning Crescent
Sep 24
New
Oct 1
First Quarter
Oct 8
Full
Oct 15
Last Quarter

Today's Extremes

State Highs State Lows

Community

WunderPhotos

Upload Photos

1,754,927 photos uploaded!

WunderBlogs® & News

Nearby

Air Quality

  Air Quality AQ Index Pollutant
Yesterday Good
PM2.5
Yesterday Good
OZONE
Current Moderate
PM2.5
Current Good
OZONE
Saturday Good
OZONE
Saturday Good
PM2.5
Sunday Good
OZONE
Sunday Good
PM2.5
Monday Good
OZONE
Monday Good
PM2.5

Snow Depth

Station Depth Elevation
No new snow has been reported.

Earthquake Activity

City Distance Mag. Time & Date
No recent earthquake activity has been reported nearby.
Minimum magnitude displayed is 2.5.

Coastal Water Temperatures

Place Temperature
Lake Worth, FL 86.0 °F
Trident Pier, FL 84.0 °F
Virginia Key, FL 84.9 °F

Nearby Weather Stations